createdAt,value
2018-11-01T00:01:17.173Z,11.00
2018-11-01T00:03:45.869Z,10.53
2018-11-01T00:06:14.622Z,11.80
2018-11-01T00:08:43.275Z,11.50
2018-11-01T00:11:12.804Z,10.67
2018-11-01T00:13:41.558Z,11.33
2018-11-01T00:16:10.218Z,12.17
2018-11-01T00:18:38.771Z,11.17
2018-11-01T00:21:09.366Z,11.53
2018-11-01T00:23:40.082Z,12.50
2018-11-01T00:26:09.112Z,11.53
2018-11-01T00:28:37.890Z,11.47
2018-11-01T00:31:06.527Z,11.07
2018-11-01T00:33:36.410Z,11.90
2018-11-01T00:36:05.250Z,10.97
2018-11-01T00:38:34.541Z,11.60
2018-11-01T00:41:03.203Z,10.20
2018-11-01T00:43:31.821Z,10.07
2018-11-01T00:46:00.403Z,10.63
2018-11-01T00:48:29.130Z,10.17
2018-11-01T00:50:57.905Z,9.47
2018-11-01T00:53:27.039Z,10.13
2018-11-01T00:55:55.750Z,10.20
2018-11-01T00:58:24.614Z,9.67
2018-11-01T01:00:53.543Z,9.63
2018-11-01T01:03:22.399Z,10.83
2018-11-01T01:05:57.442Z,10.63
2018-11-01T01:08:26.115Z,10.07
2018-11-01T01:10:54.736Z,9.17
2018-11-01T01:13:23.501Z,8.97
2018-11-01T01:15:52.293Z,10.37
2018-11-01T01:18:20.935Z,10.20
2018-11-01T01:20:49.499Z,9.10
2018-11-01T01:23:18.113Z,10.43
2018-11-01T01:25:46.787Z,9.27
2018-11-01T01:28:15.516Z,9.80
2018-11-01T01:30:44.201Z,9.77
2018-11-01T01:33:13.069Z,9.00
2018-11-01T01:35:42.245Z,10.40
2018-11-01T01:38:11.009Z,9.73
2018-11-01T01:40:39.713Z,9.50
2018-11-01T01:43:08.353Z,9.43
2018-11-01T01:45:36.980Z,10.30
2018-11-01T01:48:06.331Z,9.13
2018-11-01T01:50:34.924Z,9.50
2018-11-01T01:53:03.741Z,9.70
2018-11-01T01:55:32.210Z,9.13
2018-11-01T01:58:00.901Z,8.60
2018-11-01T02:00:29.518Z,9.50
2018-11-01T02:02:58.195Z,9.70
2018-11-01T02:05:26.822Z,9.73
2018-11-01T02:07:55.458Z,9.80
2018-11-01T02:10:24.125Z,9.20
2018-11-01T02:12:52.814Z,9.43
2018-11-01T02:15:21.983Z,9.40
2018-11-01T02:17:50.799Z,8.83
2018-11-01T02:20:20.287Z,9.30
2018-11-01T02:22:49.065Z,10.00
2018-11-01T02:25:17.696Z,9.23
2018-11-01T02:27:51.609Z,10.07
2018-11-01T02:30:20.201Z,9.83
2018-11-01T02:32:48.892Z,10.10
2018-11-01T02:35:19.175Z,9.60
2018-11-01T02:37:47.958Z,9.87
2018-11-01T02:40:17.082Z,9.53
2018-11-01T02:42:47.461Z,10.07
2018-11-01T02:45:16.435Z,10.03
2018-11-01T02:47:45.910Z,9.13
2018-11-01T02:50:14.829Z,9.67
2018-11-01T02:52:43.380Z,11.10
2018-11-01T02:55:12.165Z,9.47
2018-11-01T02:57:40.659Z,9.67
2018-11-01T03:00:10.697Z,9.43
2018-11-01T03:02:39.342Z,9.10
2018-11-01T03:05:08.793Z,9.73
2018-11-01T03:07:37.456Z,9.60
2018-11-01T03:10:07.341Z,9.57
2018-11-01T03:12:35.843Z,11.93
2018-11-01T03:15:05.296Z,10.87
2018-11-01T03:17:33.824Z,13.10
2018-11-01T03:20:02.481Z,9.83
2018-11-01T03:22:31.373Z,10.10
2018-11-01T03:25:00.353Z,10.30
2018-11-01T03:27:29.164Z,9.60
2018-11-01T03:29:57.754Z,9.63
2018-11-01T03:32:26.509Z,10.00
2018-11-01T03:34:55.105Z,9.13
2018-11-01T03:37:23.740Z,9.87
2018-11-01T03:39:52.287Z,10.13
2018-11-01T03:42:20.817Z,10.40
2018-11-01T03:44:50.286Z,9.90
2018-11-01T03:47:19.082Z,10.33
2018-11-01T03:49:47.856Z,11.97
2018-11-01T03:52:16.568Z,10.70
2018-11-01T03:54:45.096Z,10.17
2018-11-01T03:57:13.622Z,10.67
2018-11-01T03:59:42.165Z,11.30
2018-11-01T04:02:10.857Z,11.53
2018-11-01T04:04:39.586Z,11.37
2018-11-01T04:07:08.261Z,10.10
2018-11-01T04:09:43.483Z,10.10
2018-11-01T04:12:12.072Z,9.10
2018-11-01T04:14:40.748Z,9.10
2018-11-01T04:17:09.516Z,9.77
2018-11-01T04:19:38.140Z,8.83
2018-11-01T04:22:07.654Z,8.93
2018-11-01T04:24:37.512Z,9.40
2018-11-01T04:27:06.483Z,9.23
2018-11-01T04:29:36.963Z,9.43
2018-11-01T04:32:06.299Z,9.10
2018-11-01T04:34:34.898Z,9.47
2018-11-01T04:37:03.676Z,8.93
2018-11-01T04:39:32.336Z,8.73
2018-11-01T04:42:01.127Z,8.47
2018-11-01T04:44:29.762Z,8.60
2018-11-01T04:46:58.528Z,9.10
2018-11-01T04:49:27.442Z,8.47
2018-11-01T04:51:56.026Z,8.17
2018-11-01T04:54:24.742Z,8.67
2018-11-01T04:56:53.614Z,8.03
2018-11-01T04:59:22.255Z,8.27
2018-11-01T05:01:50.927Z,8.03
2018-11-01T05:04:19.544Z,8.10
2018-11-01T05:06:48.221Z,7.57
2018-11-01T05:09:16.987Z,7.60
2018-11-01T05:11:45.964Z,7.90
2018-11-01T05:14:16.056Z,8.53
2018-11-01T05:16:45.516Z,8.17
2018-11-01T05:19:14.458Z,7.83
2018-11-01T05:21:43.134Z,8.03
2018-11-01T05:24:11.811Z,7.60
2018-11-01T05:26:40.388Z,7.83
2018-11-01T05:29:09.058Z,8.07
2018-11-01T05:31:37.657Z,8.57
2018-11-01T05:34:06.650Z,8.30
2018-11-01T05:36:35.318Z,8.03
2018-11-01T05:39:05.097Z,8.27
2018-11-01T05:41:33.938Z,9.13
2018-11-01T05:44:02.682Z,8.20
2018-11-01T05:46:31.536Z,8.67
2018-11-01T05:49:00.140Z,8.03
2018-11-01T05:51:28.743Z,7.80
2018-11-01T05:53:57.361Z,8.23
2018-11-01T05:56:26.060Z,7.90
2018-11-01T05:58:55.006Z,7.53
2018-11-01T06:01:28.742Z,7.63
2018-11-01T06:03:57.611Z,7.83
2018-11-01T06:06:26.438Z,7.47
2018-11-01T06:08:56.132Z,8.33
2018-11-01T06:11:25.011Z,8.23
2018-11-01T06:13:53.661Z,7.50
2018-11-01T06:16:22.160Z,7.13
2018-11-01T06:18:50.942Z,7.47
2018-11-01T06:21:19.598Z,7.50
2018-11-01T06:23:48.236Z,8.10
2018-11-01T06:26:17.614Z,6.83
2018-11-01T06:28:46.251Z,6.50
2018-11-01T06:31:15.040Z,6.83
2018-11-01T06:33:43.651Z,7.03
2018-11-01T06:36:14.574Z,6.50
2018-11-01T06:38:43.273Z,6.73
2018-11-01T06:41:12.106Z,6.53
2018-11-01T06:43:40.782Z,6.23
2018-11-01T06:46:09.728Z,6.30
2018-11-01T06:48:38.886Z,6.63
2018-11-01T06:51:07.722Z,6.80
2018-11-01T06:53:36.459Z,5.93
2018-11-01T06:56:05.198Z,7.23
2018-11-01T06:58:34.189Z,7.67
2018-11-01T07:01:02.984Z,8.57
2018-11-01T07:03:31.811Z,7.83
2018-11-01T07:06:00.831Z,9.13
2018-11-01T07:08:29.696Z,10.87
2018-11-01T07:10:58.384Z,9.83
2018-11-01T07:13:27.090Z,9.17
2018-11-01T07:15:55.590Z,7.43
2018-11-01T07:18:24.275Z,6.60
2018-11-01T07:20:53.691Z,6.57
2018-11-01T07:23:22.413Z,5.77
2018-11-01T07:25:51.379Z,6.50
2018-11-01T07:28:20.022Z,5.70
2018-11-01T07:30:48.693Z,5.87
2018-11-01T07:33:17.297Z,5.33
2018-11-01T07:35:45.914Z,5.40
2018-11-01T07:38:14.535Z,5.40
2018-11-01T07:40:43.291Z,5.67
2018-11-01T07:43:12.249Z,4.97
2018-11-01T07:45:47.460Z,5.67
2018-11-01T07:48:16.134Z,7.67
2018-11-01T07:50:44.836Z,5.70
2018-11-01T07:53:13.517Z,5.83
2018-11-01T07:55:42.159Z,5.87
2018-11-01T07:58:10.873Z,5.63
2018-11-01T08:00:39.575Z,5.17
2018-11-01T08:03:08.271Z,10.47
2018-11-01T08:05:37.196Z,5.77
2018-11-01T08:08:05.896Z,5.33
2018-11-01T08:10:34.961Z,9.40
2018-11-01T08:13:04.077Z,8.33
2018-11-01T08:15:32.805Z,5.43
2018-11-01T08:18:02.421Z,5.10
2018-11-01T08:20:31.296Z,6.87
2018-11-01T08:23:00.501Z,15.20
2018-11-01T08:25:29.139Z,5.37
2018-11-01T08:27:57.814Z,6.13
2018-11-01T08:30:26.995Z,9.10
2018-11-01T08:32:56.288Z,5.40
2018-11-01T08:35:25.150Z,4.97
2018-11-01T08:37:57.297Z,8.87
2018-11-01T08:40:26.113Z,7.07
2018-11-01T08:42:54.968Z,6.17
2018-11-01T08:45:23.935Z,7.37
2018-11-01T08:47:52.683Z,5.43
2018-11-01T08:50:21.681Z,5.27
2018-11-01T08:52:51.221Z,5.00
2018-11-01T08:55:20.077Z,5.30
2018-11-01T08:57:48.894Z,7.43
2018-11-01T09:00:18.065Z,5.40
2018-11-01T09:02:46.723Z,4.63
2018-11-01T09:05:15.484Z,4.83
2018-11-01T09:07:44.508Z,4.40
2018-11-01T09:10:15.090Z,4.17
2018-11-01T09:12:43.954Z,4.57
2018-11-01T09:15:15.589Z,4.47
2018-11-01T09:17:45.341Z,6.73
2018-11-01T09:20:13.949Z,5.20
2018-11-01T09:22:43.284Z,5.87
2018-11-01T09:25:12.310Z,4.57
2018-11-01T09:27:41.226Z,4.20
2018-11-01T09:30:13.197Z,4.30
2018-11-01T09:32:42.248Z,4.10
2018-11-01T09:35:11.905Z,7.57
2018-11-01T09:37:42.160Z,4.77
2018-11-01T09:40:12.870Z,4.77
2018-11-01T09:42:43.153Z,5.70
2018-11-01T09:45:12.273Z,4.70
2018-11-01T09:47:41.442Z,6.53
2018-11-01T09:50:10.846Z,4.63
2018-11-01T09:52:39.843Z,4.33
2018-11-01T09:55:08.464Z,5.73
2018-11-01T09:57:37.445Z,4.87
2018-11-01T10:00:09.351Z,9.10
2018-11-01T10:02:38.391Z,4.80
2018-11-01T10:05:08.416Z,5.10
2018-11-01T10:07:40.579Z,4.00
2018-11-01T10:10:10.828Z,5.30
2018-11-01T10:12:40.019Z,4.53
2018-11-01T10:15:10.000Z,5.90
2018-11-01T10:17:39.342Z,5.30
2018-11-01T10:20:09.657Z,5.37
2018-11-01T10:22:38.761Z,5.43
2018-11-01T10:25:08.283Z,5.13
2018-11-01T10:27:37.850Z,6.53
2018-11-01T10:30:10.781Z,5.90
2018-11-01T10:32:39.717Z,5.37
2018-11-01T10:35:10.069Z,4.80
2018-11-01T10:37:39.656Z,5.20
2018-11-01T10:40:12.763Z,5.00
2018-11-01T10:42:41.793Z,5.30
2018-11-01T10:45:11.140Z,5.00
2018-11-01T10:47:40.332Z,5.50
2018-11-01T10:50:13.983Z,5.23
2018-11-01T10:52:42.950Z,5.00
2018-11-01T10:55:13.345Z,4.60
2018-11-01T10:57:42.302Z,3.80
2018-11-01T11:00:17.313Z,4.13
2018-11-01T11:02:49.008Z,4.60
2018-11-01T11:05:18.826Z,5.00
2018-11-01T11:07:48.576Z,4.80
2018-11-01T11:10:17.660Z,4.20
2018-11-01T11:12:46.442Z,4.93
2018-11-01T11:15:15.755Z,4.60
2018-11-01T11:17:44.544Z,4.70
2018-11-01T11:20:13.510Z,5.03
2018-11-01T11:22:42.540Z,5.73
2018-11-01T11:25:12.247Z,6.00
2018-11-01T11:27:42.156Z,6.00
2018-11-01T11:30:11.907Z,6.20
2018-11-01T11:32:40.925Z,5.30
2018-11-01T11:35:10.546Z,5.37
2018-11-01T11:37:39.444Z,6.43
2018-11-01T11:40:09.778Z,5.70
2018-11-01T11:42:38.532Z,5.67
2018-11-01T11:45:08.611Z,6.87
2018-11-01T11:47:37.648Z,6.23
2018-11-01T11:50:08.050Z,5.37
2018-11-01T11:52:37.706Z,15.40
2018-11-01T11:55:07.326Z,5.73
2018-11-01T11:57:36.282Z,6.90
2018-11-01T12:00:08.014Z,10.83
2018-11-01T12:02:37.107Z,4.60
2018-11-01T12:05:06.338Z,4.83
2018-11-01T12:07:35.127Z,4.73
2018-11-01T12:10:03.992Z,4.50
2018-11-01T12:12:32.797Z,4.80
2018-11-01T12:15:02.140Z,4.30
2018-11-01T12:17:30.936Z,4.37
2018-11-01T12:20:00.652Z,4.03
2018-11-01T12:22:29.649Z,4.43
2018-11-01T12:24:58.891Z,4.50
2018-11-01T12:27:27.692Z,3.87
2018-11-01T12:29:56.543Z,4.07
2018-11-01T12:32:25.386Z,3.90
2018-11-01T12:34:54.178Z,3.77
2018-11-01T12:37:23.094Z,4.20
2018-11-01T12:39:51.854Z,5.47
2018-11-01T12:42:20.590Z,4.63
2018-11-01T12:44:49.383Z,4.77
2018-11-01T12:47:18.080Z,4.20
2018-11-01T12:49:47.436Z,10.93
2018-11-01T12:52:16.092Z,25.50
2018-11-01T12:54:44.693Z,19.00
2018-11-01T12:57:14.067Z,5.27
2018-11-01T12:59:43.260Z,7.27
2018-11-01T13:02:11.985Z,4.77
2018-11-01T13:04:41.020Z,4.33
2018-11-01T13:07:09.940Z,4.07
2018-11-01T13:09:39.640Z,3.90
2018-11-01T13:12:08.683Z,4.20
2018-11-01T13:14:44.033Z,4.80
2018-11-01T13:17:12.873Z,6.77
2018-11-01T13:19:42.147Z,7.03
2018-11-01T13:22:10.875Z,7.00
2018-11-01T13:24:39.856Z,6.50
2018-11-01T13:27:10.411Z,6.27
2018-11-01T13:29:39.189Z,6.13
2018-11-01T13:32:08.041Z,6.60
2018-11-01T13:34:36.858Z,6.40
2018-11-01T13:37:06.670Z,5.93
2018-11-01T13:39:35.602Z,14.97
2018-11-01T13:42:04.319Z,6.93
2018-11-01T13:44:33.844Z,9.87
2018-11-01T13:47:02.644Z,6.33
2018-11-01T13:49:31.327Z,5.90
2018-11-01T13:52:00.071Z,6.17
2018-11-01T13:54:28.856Z,5.23
2018-11-01T13:56:57.962Z,6.33
2018-11-01T13:59:27.046Z,8.47
2018-11-01T14:01:57.041Z,8.67
2018-11-01T14:04:25.851Z,7.43
2018-11-01T14:06:54.544Z,7.60
2018-11-01T14:09:23.128Z,8.40
2018-11-01T14:11:51.871Z,7.13
2018-11-01T14:14:21.253Z,6.87
2018-11-01T14:16:49.478Z,5.93
2018-11-01T14:19:18.178Z,6.40
2018-11-01T14:21:46.870Z,6.97
2018-11-01T14:24:15.577Z,5.90
2018-11-01T14:26:44.238Z,6.73
2018-11-01T14:29:13.095Z,7.00
2018-11-01T14:31:41.784Z,7.27
2018-11-01T14:34:10.500Z,10.73
2018-11-01T14:36:39.335Z,10.67
2018-11-01T14:39:11.239Z,17.43
2018-11-01T14:41:40.046Z,7.37
2018-11-01T14:44:09.214Z,7.23
2018-11-01T14:46:37.843Z,6.50
2018-11-01T14:49:07.005Z,7.47
2018-11-01T14:51:35.924Z,6.60
2018-11-01T14:54:05.276Z,8.73
2018-11-01T14:56:35.142Z,7.57
2018-11-01T14:59:03.776Z,9.10
2018-11-01T15:01:30.704Z,6.40
2018-11-01T15:03:59.505Z,7.40
2018-11-01T15:06:28.474Z,6.87
2018-11-01T15:08:57.583Z,7.13
2018-11-01T15:11:26.385Z,7.13
2018-11-01T15:13:55.086Z,7.20
2018-11-01T15:16:24.153Z,6.50
2018-11-01T15:18:52.837Z,7.33
2018-11-01T15:21:21.563Z,7.33
2018-11-01T15:23:51.011Z,6.77
2018-11-01T15:26:19.778Z,6.60
2018-11-01T15:28:48.337Z,7.27
2018-11-01T15:31:17.235Z,6.57
2018-11-01T15:33:46.066Z,7.30
2018-11-01T15:36:14.750Z,7.10
2018-11-01T15:38:43.688Z,6.87
2018-11-01T15:41:13.292Z,6.87
2018-11-01T15:43:43.184Z,6.77
2018-11-01T15:46:12.374Z,6.60
2018-11-01T15:48:41.507Z,6.93
2018-11-01T15:51:13.800Z,6.30
2018-11-01T15:53:42.384Z,6.47
2018-11-01T15:56:17.671Z,6.50
2018-11-01T15:58:46.348Z,6.43
2018-11-01T16:01:15.660Z,6.13
2018-11-01T16:03:44.313Z,6.07
2018-11-01T16:06:13.079Z,5.83
2018-11-01T16:08:41.844Z,6.17
2018-11-01T16:11:10.355Z,6.10
2018-11-01T16:13:38.975Z,6.43
2018-11-01T16:16:07.719Z,6.33
2018-11-01T16:18:36.352Z,7.27
2018-11-01T16:21:05.647Z,10.93
2018-11-01T16:23:34.413Z,8.57
2018-11-01T16:26:03.205Z,8.83
2018-11-01T16:28:31.980Z,9.27
2018-11-01T16:31:00.817Z,9.43
2018-11-01T16:33:29.454Z,9.47
2018-11-01T16:35:58.041Z,9.17
2018-11-01T16:38:26.583Z,9.67
2018-11-01T16:40:55.215Z,10.03
2018-11-01T16:43:23.785Z,10.80
2018-11-01T16:45:52.618Z,10.67
2018-11-01T16:48:21.262Z,10.77
2018-11-01T16:50:49.874Z,10.77
2018-11-01T16:53:18.529Z,9.90
2018-11-01T16:55:47.189Z,10.77
2018-11-01T16:58:15.788Z,11.80
2018-11-01T17:00:44.457Z,10.37
2018-11-01T17:03:13.216Z,12.23
2018-11-01T17:05:42.087Z,15.57
2018-11-01T17:08:10.800Z,11.23
2018-11-01T17:10:39.512Z,11.23
2018-11-01T17:13:08.383Z,11.60
2018-11-01T17:15:37.114Z,13.40
2018-11-01T17:18:05.824Z,12.10
2018-11-01T17:20:34.480Z,11.93
2018-11-01T17:23:03.427Z,11.63
2018-11-01T17:25:32.212Z,11.30
2018-11-01T17:28:01.340Z,12.63
2018-11-01T17:30:30.410Z,12.83
2018-11-01T17:32:59.100Z,12.33
2018-11-01T17:35:27.768Z,11.93
2018-11-01T17:37:56.344Z,12.03
2018-11-01T17:40:25.265Z,12.83
2018-11-01T17:42:54.243Z,25.27
2018-11-01T17:45:23.395Z,13.47
2018-11-01T17:47:52.390Z,14.03
2018-11-01T17:50:21.206Z,14.13
2018-11-01T17:52:50.070Z,16.83
2018-11-01T17:55:19.359Z,14.63
2018-11-01T17:57:48.480Z,56.90
2018-11-01T18:00:19.089Z,70.23
2018-11-01T18:02:48.122Z,40.10
2018-11-01T18:05:17.056Z,16.10
2018-11-01T18:07:45.901Z,15.40
2018-11-01T18:10:14.998Z,15.63
2018-11-01T18:12:45.339Z,16.53
2018-11-01T18:15:14.397Z,15.90
2018-11-01T18:17:43.922Z,18.63
2018-11-01T18:20:13.717Z,17.90
2018-11-01T18:22:43.595Z,17.17
2018-11-01T18:25:15.420Z,17.77
2018-11-01T18:27:45.445Z,19.83
2018-11-01T18:30:15.977Z,19.13
2018-11-01T18:32:45.544Z,19.83
2018-11-01T18:35:15.284Z,26.73
2018-11-01T18:37:45.005Z,36.00
2018-11-01T18:40:18.806Z,22.80
2018-11-01T18:42:47.847Z,23.10
2018-11-01T18:45:18.182Z,16.30
2018-11-01T18:47:48.833Z,24.90
2018-11-01T18:50:18.121Z,17.07
2018-11-01T18:52:47.411Z,24.00
2018-11-01T18:55:17.040Z,21.47
2018-11-01T18:57:46.303Z,16.87
2018-11-01T19:00:16.958Z,15.10
2018-11-01T19:02:46.425Z,16.07
2018-11-01T19:05:15.707Z,15.37
2018-11-01T19:07:45.488Z,15.67
2018-11-01T19:10:15.247Z,15.03
2018-11-01T19:12:44.588Z,17.20
2018-11-01T19:15:14.962Z,16.60
2018-11-01T19:17:44.320Z,16.13
2018-11-01T19:20:14.102Z,20.07
2018-11-01T19:22:44.093Z,16.43
2018-11-01T19:25:14.275Z,17.67
2018-11-01T19:27:44.596Z,34.67
2018-11-01T19:30:15.041Z,17.27
2018-11-01T19:32:44.276Z,18.47
2018-11-01T19:35:14.091Z,19.60
2018-11-01T19:37:42.821Z,18.10
2018-11-01T19:40:14.219Z,17.03
2018-11-01T19:42:44.319Z,18.37
2018-11-01T19:45:13.315Z,17.23
2018-11-01T19:47:42.958Z,17.70
2018-11-01T19:50:14.015Z,17.40
2018-11-01T19:52:43.882Z,18.20
2018-11-01T19:55:15.313Z,17.67
2018-11-01T19:57:44.217Z,17.63
2018-11-01T20:00:16.153Z,19.43
2018-11-01T20:02:45.591Z,24.27
2018-11-01T20:05:14.456Z,16.90
2018-11-01T20:07:43.268Z,17.13
2018-11-01T20:10:13.600Z,19.37
2018-11-01T20:12:44.607Z,25.30
2018-11-01T20:15:13.376Z,17.90
2018-11-01T20:17:42.372Z,16.37
2018-11-01T20:20:12.522Z,17.43
2018-11-01T20:22:42.381Z,16.87
2018-11-01T20:25:11.372Z,18.83
2018-11-01T20:27:40.676Z,18.63
2018-11-01T20:30:12.797Z,18.37
2018-11-01T20:32:42.331Z,18.73
2018-11-01T20:35:12.571Z,20.03
2018-11-01T20:37:42.095Z,20.87
2018-11-01T20:40:11.021Z,20.70
2018-11-01T20:42:40.244Z,20.50
2018-11-01T20:45:10.162Z,20.10
2018-11-01T20:47:38.854Z,19.37
2018-11-01T20:50:09.303Z,20.53
2018-11-01T20:52:37.861Z,20.13
2018-11-01T20:55:06.805Z,20.63
2018-11-01T20:57:35.523Z,19.80
2018-11-01T21:00:04.527Z,18.90
2018-11-01T21:02:33.044Z,19.47
2018-11-01T21:05:01.894Z,20.07
2018-11-01T21:07:30.543Z,20.10
2018-11-01T21:09:59.125Z,20.97
2018-11-01T21:12:27.788Z,20.60
2018-11-01T21:14:56.433Z,23.90
2018-11-01T21:17:25.364Z,22.40
2018-11-01T21:19:54.342Z,23.10
2018-11-01T21:22:23.142Z,21.93
2018-11-01T21:24:54.115Z,22.03
2018-11-01T21:27:22.885Z,21.77
2018-11-01T21:29:51.786Z,23.27
2018-11-01T21:32:20.451Z,22.97
2018-11-01T21:34:49.151Z,24.87
2018-11-01T21:37:17.950Z,22.80
2018-11-01T21:39:46.508Z,26.27
2018-11-01T21:42:15.998Z,26.50
2018-11-01T21:44:45.087Z,24.33
2018-11-01T21:47:13.690Z,23.63
2018-11-01T21:49:42.555Z,23.10
2018-11-01T21:52:12.010Z,23.23
2018-11-01T21:54:40.690Z,23.27
2018-11-01T21:57:09.394Z,23.37
2018-11-01T21:59:38.002Z,23.10
2018-11-01T22:02:07.067Z,21.83
2018-11-01T22:04:35.929Z,22.23
2018-11-01T22:07:04.781Z,22.63
2018-11-01T22:09:33.541Z,23.27
2018-11-01T22:12:02.188Z,21.27
2018-11-01T22:14:30.995Z,21.03
2018-11-01T22:17:00.394Z,22.27
2018-11-01T22:19:29.252Z,21.17
2018-11-01T22:21:58.700Z,21.47
2018-11-01T22:24:27.308Z,23.47
2018-11-01T22:26:56.315Z,21.73
2018-11-01T22:29:25.014Z,22.43
2018-11-01T22:31:53.593Z,24.43
2018-11-01T22:34:22.331Z,22.83
2018-11-01T22:36:51.121Z,22.40
2018-11-01T22:39:19.692Z,20.57
2018-11-01T22:41:49.088Z,20.83
2018-11-01T22:44:34.738Z,20.40
2018-11-01T22:47:03.611Z,20.13
2018-11-01T22:49:32.886Z,21.53
2018-11-01T22:52:01.539Z,21.70
2018-11-01T22:54:30.096Z,19.50
2018-11-01T22:56:58.656Z,19.37
2018-11-01T22:59:27.154Z,19.00
2018-11-01T23:01:55.740Z,19.47
2018-11-01T23:04:24.496Z,18.63
2018-11-01T23:06:53.352Z,17.43
2018-11-01T23:09:21.855Z,17.50
2018-11-01T23:11:50.422Z,18.53
2018-11-01T23:14:18.926Z,17.30
2018-11-01T23:16:47.500Z,16.50
2018-11-01T23:19:16.216Z,17.10
2018-11-01T23:21:44.741Z,16.73
2018-11-01T23:24:13.414Z,16.23
2018-11-01T23:26:42.021Z,16.87
2018-11-01T23:29:10.718Z,16.80
2018-11-01T23:31:39.463Z,18.63
2018-11-01T23:34:08.079Z,16.63
2018-11-01T23:36:42.022Z,17.37
2018-11-01T23:39:15.785Z,16.10
2018-11-01T23:41:49.490Z,16.73
2018-11-01T23:44:23.400Z,16.33
2018-11-01T23:46:57.037Z,16.87
2018-11-01T23:49:31.042Z,16.27
2018-11-01T23:52:08.186Z,15.93
2018-11-01T23:54:36.764Z,16.60
2018-11-01T23:57:05.303Z,16.87
2018-11-01T23:59:33.853Z,17.00
